Time;durP1;ratioP1;P1;durP2;ratioP2;P2;SDS_P1;SDS_P2;PMS_P1;PMS_P2;Temp;Humidity;BMP_temperature;BMP_pressure;BME280_temperature;BME280_humidity;BME280_pressure;Samples;Min_cycle;Max_cycle;Signal;HPM_P1;HPM_P2
2023/09/28 00:02:48;;;;;;;12.52;11.43;;;17.00;87.00;;;;;;4939221;29;20174;-86
2023/09/28 00:05:15;;;;;;;13.48;12.18;;;17.00;87.20;;;;;;4937324;29;20204;-85
2023/09/28 00:07:41;;;;;;;13.15;11.82;;;17.00;87.20;;;;;;4938542;29;20172;-86
2023/09/28 00:10:17;;;;;;;15.15;12.25;;;17.00;87.40;;;;;;4937204;29;20247;-86
2023/09/28 00:12:48;;;;;;;12.38;11.18;;;17.10;87.40;;;;;;4938903;29;20254;-86
2023/09/28 00:15:15;;;;;;;12.93;11.63;;;17.00;87.30;;;;;;4938401;29;20195;-86
2023/09/28 00:17:41;;;;;;;16.20;12.10;;;17.00;87.30;;;;;;4938331;29;20647;-86
2023/09/28 00:20:17;;;;;;;13.07;11.68;;;16.90;87.40;;;;;;4938417;29;20211;-86
2023/09/28 00:22:51;;;;;;;15.93;11.32;;;16.80;87.50;;;;;;4937155;29;20182;-85
2023/09/28 00:25:19;;;;;;;14.57;12.20;;;16.70;87.40;;;;;;4936892;29;20203;-86
2023/09/28 00:27:47;;;;;;;13.48;11.80;;;16.60;87.70;;;;;;4937028;29;20579;-87
2023/09/28 00:30:15;;;;;;;15.63;11.75;;;16.60;87.80;;;;;;4938102;29;20196;-86
2023/09/28 00:32:44;;;;;;;13.40;11.45;;;16.60;87.90;;;;;;4938388;29;20643;-86
2023/09/28 00:35:09;;;;;;;13.60;12.38;;;16.60;87.80;;;;;;4936714;29;20196;-86
2023/09/28 00:37:35;;;;;;;15.00;13.60;;;16.70;87.90;;;;;;4936868;29;20537;-86
2023/09/28 00:40:08;;;;;;;14.93;13.45;;;16.70;88.00;;;;;;4936789;29;20544;-86
2023/09/28 00:42:34;;;;;;;15.30;13.10;;;16.70;88.00;;;;;;4938017;29;20243;-86
2023/09/28 00:45:00;;;;;;;15.45;13.05;;;16.70;88.20;;;;;;4937903;29;20226;-86
2023/09/28 00:47:25;;;;;;;15.13;13.63;;;16.70;88.20;;;;;;4941562;29;20176;-86
2023/09/28 00:49:52;;;;;;;15.57;13.80;;;16.70;88.20;;;;;;4937882;29;20211;-86
2023/09/28 00:52:18;;;;;;;15.25;13.80;;;16.70;88.50;;;;;;4937859;29;20645;-86
2023/09/28 00:54:48;;;;;;;14.32;13.10;;;16.70;88.70;;;;;;4938180;29;20211;-86
2023/09/28 00:57:15;;;;;;;15.45;13.98;;;16.70;88.60;;;;;;4937960;29;20172;-86
2023/09/28 00:59:41;;;;;;;15.43;13.68;;;16.70;88.70;;;;;;4937871;29;20168;-86
2023/09/28 01:02:08;;;;;;;15.20;13.95;;;16.70;88.80;;;;;;4937681;29;20619;-86
2023/09/28 01:04:34;;;;;;;19.52;14.32;;;16.70;88.90;;;;;;4936438;29;20290;-86
2023/09/28 01:06:59;;;;;;;15.70;14.02;;;16.70;88.90;;;;;;4938911;29;20551;-86
2023/09/28 01:09:26;;;;;;;22.75;20.35;;;16.70;88.90;;;;;;4962200;28;20223;-83
2023/09/28 01:11:52;;;;;;;24.50;22.50;;;16.70;89.00;;;;;;4956904;28;20224;-86
2023/09/28 01:14:19;;;;;;;20.05;18.45;;;16.60;88.90;;;;;;4937487;29;20244;-87
2023/09/28 01:16:44;;;;;;;14.10;12.65;;;16.60;89.00;;;;;;4936048;29;20270;-87
2023/09/28 01:19:11;;;;;;;15.82;14.27;;;16.50;89.00;;;;;;4937168;29;20219;-86
2023/09/28 01:21:36;;;;;;;20.95;19.25;;;16.60;89.10;;;;;;4935998;29;20180;-87
2023/09/28 01:24:02;;;;;;;23.27;21.40;;;16.60;89.10;;;;;;4935863;29;20203;-86
2023/09/28 01:26:31;;;;;;;15.98;14.07;;;16.60;89.10;;;;;;4937148;29;20173;-87
2023/09/28 01:28:57;;;;;;;15.52;13.93;;;16.60;89.10;;;;;;4937133;29;20176;-86
2023/09/28 01:31:23;;;;;;;21.27;14.10;;;16.60;89.10;;;;;;4937012;29;20199;-86
2023/09/28 01:33:48;;;;;;;20.83;19.13;;;16.60;89.10;;;;;;4937014;29;20243;-86
2023/09/28 01:36:14;;;;;;;23.52;21.50;;;16.60;89.10;;;;;;4935813;29;20617;-86
2023/09/28 01:39:06;;;;;;;23.15;14.55;;;16.60;89.20;;;;;;4935721;29;20191;-86
2023/09/28 01:41:32;;;;;;;15.30;13.40;;;16.50;89.20;;;;;;4935575;29;20184;-87
2023/09/28 01:43:57;;;;;;;15.13;13.60;;;16.50;89.20;;;;;;4935769;29;20254;-86
2023/09/28 01:46:23;;;;;;;14.93;13.10;;;16.50;89.20;;;;;;4935671;29;20188;-86
2023/09/28 01:48:48;;;;;;;15.23;13.70;;;16.40;89.20;;;;;;4935631;29;20609;-86
2023/09/28 01:51:14;;;;;;;15.35;13.82;;;16.50;89.30;;;;;;4936685;29;20235;-86
2023/09/28 01:53:39;;;;;;;15.02;13.63;;;16.40;89.20;;;;;;4935624;29;20196;-86
2023/09/28 01:56:05;;;;;;;16.50;14.60;;;16.40;89.40;;;;;;4937070;29;20239;-86
2023/09/28 01:58:31;;;;;;;15.48;13.88;;;16.50;89.40;;;;;;4937085;29;20231;-86
2023/09/28 02:00:57;;;;;;;19.55;14.75;;;16.50;89.50;;;;;;4935306;29;20713;-86
2023/09/28 02:03:22;;;;;;;15.43;13.68;;;16.40;89.50;;;;;;4936018;29;20299;-87
2023/09/28 02:05:49;;;;;;;16.27;14.02;;;16.30;89.70;;;;;;4936508;29;20585;-86
2023/09/28 02:08:15;;;;;;;16.48;13.60;;;16.30;89.70;;;;;;4936429;29;20176;-86
2023/09/28 02:10:41;;;;;;;18.55;14.20;;;16.30;89.80;;;;;;4935192;29;20200;-86
2023/09/28 02:13:07;;;;;;;18.42;13.70;;;16.20;89.80;;;;;;4936614;29;20172;-86
2023/09/28 02:15:32;;;;;;;15.15;13.75;;;16.20;89.80;;;;;;4936723;29;20558;-87
2023/09/28 02:17:58;;;;;;;16.52;13.73;;;16.20;89.90;;;;;;4935519;29;20526;-86
2023/09/28 02:20:24;;;;;;;15.02;13.50;;;16.20;89.90;;;;;;4936421;29;20176;-86
2023/09/28 02:22:52;;;;;;;15.45;14.02;;;16.20;89.90;;;;;;4936437;29;20640;-87
2023/09/28 02:25:20;;;;;;;17.30;15.60;;;16.20;89.90;;;;;;4936186;29;20191;-86
2023/09/28 02:27:47;;;;;;;24.30;16.60;;;16.20;90.10;;;;;;4936061;29;20168;-86
2023/09/28 02:30:17;;;;;;;20.73;16.23;;;16.30;90.00;;;;;;4936217;29;20255;-86
2023/09/28 02:32:46;;;;;;;18.42;16.50;;;16.30;90.20;;;;;;4936370;29;20196;-86
2023/09/28 02:35:16;;;;;;;18.10;15.48;;;16.40;90.30;;;;;;4935976;29;20200;-86
2023/09/28 02:37:44;;;;;;;23.10;15.85;;;16.30;90.30;;;;;;4936074;29;20157;-86
2023/09/28 02:40:13;;;;;;;16.80;15.00;;;16.50;90.30;;;;;;4934644;29;20200;-86
2023/09/28 02:42:40;;;;;;;18.30;15.02;;;16.40;90.30;;;;;;4934871;29;20176;-86
2023/09/28 02:45:11;;;;;;;22.67;15.88;;;16.50;90.30;;;;;;4936031;29;20628;-86
2023/09/28 02:47:38;;;;;;;16.23;14.65;;;16.50;90.30;;;;;;4936189;29;20157;-86
2023/09/28 02:50:06;;;;;;;18.05;16.33;;;16.50;90.20;;;;;;4935813;29;20223;-86
2023/09/28 02:52:32;;;;;;;16.48;14.77;;;16.50;90.10;;;;;;4934725;29;20176;-86
2023/09/28 02:54:58;;;;;;;21.05;15.40;;;16.50;90.10;;;;;;4935763;29;20192;-86
2023/09/28 02:57:23;;;;;;;16.17;14.35;;;16.50;90.20;;;;;;4935536;29;20279;-87
2023/09/28 02:59:49;;;;;;;18.80;15.02;;;16.50;90.10;;;;;;4935813;29;20172;-86
2023/09/28 03:02:14;;;;;;;17.38;15.52;;;16.60;90.20;;;;;;4935916;29;20715;-86
2023/09/28 03:04:40;;;;;;;17.98;14.15;;;16.60;90.00;;;;;;4935903;29;20216;-86
2023/09/28 03:07:05;;;;;;;17.50;15.57;;;16.60;90.00;;;;;;4935694;29;20168;-86
2023/09/28 03:09:33;;;;;;;18.45;15.82;;;16.50;89.90;;;;;;4934458;29;20202;-86
2023/09/28 03:11:58;;;;;;;18.40;14.57;;;16.60;90.00;;;;;;4934473;29;20216;-86
2023/09/28 03:14:25;;;;;;;18.85;15.05;;;16.60;90.00;;;;;;4934428;29;20816;-86
2023/09/28 03:16:51;;;;;;;22.20;15.48;;;16.50;90.00;;;;;;4939155;29;20283;-86
2023/09/28 03:19:16;;;;;;;17.80;15.50;;;16.70;90.00;;;;;;4939470;29;20280;-85
2023/09/28 03:21:44;;;;;;;17.27;15.45;;;16.70;89.90;;;;;;4938279;29;20184;-86
2023/09/28 03:24:10;;;;;;;16.88;14.27;;;16.60;89.90;;;;;;4939481;29;20196;-86
2023/09/28 03:26:35;;;;;;;16.00;14.38;;;16.70;89.90;;;;;;4938269;29;20221;-86
2023/09/28 03:29:01;;;;;;;17.23;15.45;;;16.50;89.90;;;;;;4939284;29;20235;-86
2023/09/28 03:31:27;;;;;;;19.33;15.85;;;16.60;90.00;;;;;;4939334;29;20277;-86
2023/09/28 03:33:54;;;;;;;18.08;14.77;;;16.60;89.90;;;;;;4939338;29;20188;-86
2023/09/28 03:36:19;;;;;;;18.40;16.08;;;16.70;89.90;;;;;;4939625;29;20250;-86
2023/09/28 03:38:46;;;;;;;18.38;16.02;;;16.70;89.90;;;;;;4939157;29;20204;-86
2023/09/28 03:41:12;;;;;;;16.23;14.60;;;16.60;89.90;;;;;;4939033;29;20605;-86
2023/09/28 03:43:37;;;;;;;24.90;15.90;;;16.60;89.90;;;;;;4937788;29;20203;-86
2023/09/28 03:46:03;;;;;;;16.55;14.88;;;16.70;90.00;;;;;;4939070;29;20172;-86
2023/09/28 03:48:29;;;;;;;17.10;14.82;;;16.60;89.90;;;;;;4939022;29;20187;-86
2023/09/28 03:50:54;;;;;;;17.27;14.20;;;16.60;89.90;;;;;;4937708;29;20290;-86
2023/09/28 03:53:20;;;;;;;17.35;14.88;;;16.60;89.90;;;;;;4937794;29;20551;-86
2023/09/28 03:55:47;;;;;;;17.02;15.32;;;16.70;90.00;;;;;;4937882;29;20246;-86
2023/09/28 03:58:13;;;;;;;15.65;14.00;;;16.60;89.90;;;;;;4939250;29;20176;-86
2023/09/28 04:00:39;;;;;;;15.32;13.82;;;16.60;89.80;;;;;;4937478;29;20230;-86
2023/09/28 04:03:04;;;;;;;15.73;14.23;;;16.60;89.90;;;;;;4939223;29;20249;-86
2023/09/28 04:05:31;;;;;;;16.08;13.98;;;16.60;90.00;;;;;;4938733;29;20244;-86
2023/09/28 04:07:56;;;;;;;14.75;13.45;;;16.60;89.90;;;;;;4937481;29;20180;-86
2023/09/28 04:10:22;;;;;;;18.05;14.88;;;16.50;90.00;;;;;;4938600;29;20208;-86
2023/09/28 04:12:47;;;;;;;16.48;13.88;;;16.50;90.00;;;;;;4938540;29;20176;-86
2023/09/28 04:15:13;;;;;;;18.38;13.63;;;16.50;90.10;;;;;;4938445;29;20259;-86
2023/09/28 04:17:38;;;;;;;21.15;13.30;;;16.50;90.10;;;;;;4938563;29;20172;-86
2023/09/28 04:20:04;;;;;;;14.95;13.43;;;16.50;90.10;;;;;;4937187;29;20176;-86
2023/09/28 04:22:30;;;;;;;15.32;13.73;;;16.50;90.10;;;;;;4937086;29;20180;-86
2023/09/28 04:24:55;;;;;;;20.83;13.48;;;16.40;90.20;;;;;;4938200;29;20747;-87
2023/09/28 04:27:21;;;;;;;17.27;13.93;;;16.40;90.20;;;;;;4938295;29;20184;-86
2023/09/28 04:29:46;;;;;;;18.98;13.80;;;16.40;90.30;;;;;;4953001;28;20271;-86
2023/09/28 04:32:12;;;;;;;15.77;13.98;;;16.40;90.40;;;;;;4938214;29;20250;-86
2023/09/28 04:34:39;;;;;;;14.50;12.95;;;16.40;90.40;;;;;;4937999;29;20246;-86
2023/09/28 04:37:05;;;;;;;15.07;13.48;;;16.50;90.50;;;;;;4938135;29;20191;-86
2023/09/28 04:39:31;;;;;;;18.50;13.70;;;16.40;90.40;;;;;;4936868;29;20203;-86
2023/09/28 04:41:58;;;;;;;14.77;13.30;;;16.50;90.30;;;;;;4938332;29;20172;-86
2023/09/28 04:44:23;;;;;;;18.50;14.10;;;16.50;90.30;;;;;;4937969;29;20280;-86
2023/09/28 04:46:50;;;;;;;15.60;14.00;;;16.50;90.20;;;;;;4938004;29;20172;-86
2023/09/28 04:49:17;;;;;;;18.50;14.55;;;16.50;90.20;;;;;;4937908;29;20661;-86
2023/09/28 04:51:42;;;;;;;15.90;14.13;;;16.50;90.20;;;;;;4937754;29;20676;-86
2023/09/28 04:54:08;;;;;;;15.90;14.20;;;16.50;90.30;;;;;;4936390;29;20200;-86
2023/09/28 04:56:34;;;;;;;20.35;14.30;;;16.50;90.20;;;;;;4936528;29;20181;-86
2023/09/28 04:58:59;;;;;;;15.63;14.13;;;16.50;90.20;;;;;;4937654;29;20184;-86
2023/09/28 05:01:25;;;;;;;23.40;14.25;;;16.50;90.20;;;;;;4936472;29;20179;-86
2023/09/28 05:03:53;;;;;;;19.85;13.48;;;16.50;90.10;;;;;;4937797;29;20279;-86
2023/09/28 05:06:18;;;;;;;15.38;13.60;;;16.50;90.10;;;;;;4937830;29;20255;-85
2023/09/28 05:08:44;;;;;;;14.43;13.02;;;16.50;90.10;;;;;;4937711;29;20211;-86
2023/09/28 05:11:09;;;;;;;15.45;13.82;;;16.40;90.00;;;;;;4937676;29;20806;-86
2023/09/28 05:13:35;;;;;;;15.70;14.10;;;16.40;90.10;;;;;;4937500;29;20184;-85
2023/09/28 05:16:01;;;;;;;14.68;12.98;;;16.40;90.00;;;;;;4937422;29;20181;-87
2023/09/28 05:18:27;;;;;;;14.05;12.85;;;16.40;90.10;;;;;;4937759;29;20176;-87
2023/09/28 05:20:52;;;;;;;15.30;13.63;;;16.40;90.00;;;;;;4937961;29;20231;-88
2023/09/28 05:23:19;;;;;;;15.05;13.57;;;16.40;89.90;;;;;;4936194;29;20187;-86
2023/09/28 05:25:44;;;;;;;13.43;12.10;;;16.40;90.00;;;;;;4937261;29;20192;-86
2023/09/28 05:28:10;;;;;;;15.25;13.82;;;16.40;90.00;;;;;;4936103;29;20180;-87
2023/09/28 05:30:36;;;;;;;15.05;13.55;;;16.30;90.00;;;;;;4937784;29;20199;-85
2023/09/28 05:33:01;;;;;;;17.38;13.57;;;16.30;90.20;;;;;;4937447;29;20168;-86
2023/09/28 05:35:27;;;;;;;16.13;13.63;;;16.30;90.30;;;;;;4937055;29;20570;-85
2023/09/28 05:37:53;;;;;;;15.25;13.68;;;16.30;90.30;;;;;;4936317;29;20179;-86
2023/09/28 05:40:18;;;;;;;14.35;12.95;;;16.20;90.30;;;;;;4937202;29;20222;-86
2023/09/28 05:42:44;;;;;;;14.38;13.02;;;16.30;90.30;;;;;;4937272;29;20180;-86
2023/09/28 05:45:10;;;;;;;16.17;13.90;;;16.20;90.40;;;;;;4935771;29;20204;-86
2023/09/28 05:47:36;;;;;;;19.77;16.02;;;16.20;90.30;;;;;;4937262;29;20644;-86
2023/09/28 05:50:06;;;;;;;16.17;12.57;;;16.20;90.40;;;;;;4935722;29;20187;-85
2023/09/28 05:52:31;;;;;;;21.00;15.57;;;16.10;90.60;;;;;;4935707;29;20180;-86
2023/09/28 05:54:57;;;;;;;21.00;15.50;;;16.10;90.80;;;;;;4935862;29;20751;-86
2023/09/28 05:57:22;;;;;;;18.85;17.05;;;16.00;91.00;;;;;;4936929;29;20208;-86
2023/09/28 05:59:51;;;;;;;17.40;14.07;;;16.10;91.10;;;;;;4937161;29;20176;-87
2023/09/28 06:02:19;;;;;;;15.40;13.90;;;16.10;91.30;;;;;;4936816;29;20642;-86
2023/09/28 06:04:45;;;;;;;17.90;14.13;;;16.10;91.40;;;;;;4936647;29;20203;-86
2023/09/28 06:07:10;;;;;;;17.70;15.90;;;16.10;91.40;;;;;;4935355;29;20554;-86
2023/09/28 06:09:37;;;;;;;21.00;18.35;;;16.20;91.30;;;;;;4936628;29;20179;-86
2023/09/28 06:12:03;;;;;;;15.07;13.60;;;16.20;91.10;;;;;;4936390;29;20207;-86
2023/09/28 06:14:29;;;;;;;15.90;14.10;;;16.30;90.90;;;;;;4936397;29;20196;-86
2023/09/28 06:16:54;;;;;;;17.70;16.02;;;16.30;90.70;;;;;;4935194;29;20187;-86
2023/09/28 06:19:21;;;;;;;18.20;16.40;;;16.40;90.50;;;;;;4935202;29;20192;-86
2023/09/28 06:21:47;;;;;;;17.30;15.57;;;16.50;90.20;;;;;;4936281;29;20172;-86
2023/09/28 06:24:12;;;;;;;16.23;12.98;;;16.50;90.10;;;;;;4936598;29;20556;-86
2023/09/28 06:26:38;;;;;;;14.40;13.02;;;16.50;90.10;;;;;;4934770;29;20179;-86
2023/09/28 06:29:04;;;;;;;14.75;13.23;;;16.50;90.00;;;;;;4936369;29;20187;-86
2023/09/28 06:31:30;;;;;;;20.10;13.95;;;16.50;90.00;;;;;;4936455;29;20212;-87
2023/09/28 06:33:56;;;;;;;13.90;12.70;;;16.50;90.20;;;;;;4936079;29;20214;-87
2023/09/28 06:36:25;;;;;;;15.75;12.88;;;16.50;90.20;;;;;;4939085;29;20542;-86
2023/09/28 06:38:51;;;;;;;13.25;11.55;;;16.50;90.30;;;;;;4937493;29;20648;-88
2023/09/28 06:41:17;;;;;;;17.75;12.75;;;16.50;90.20;;;;;;4938699;29;20196;-88
2023/09/28 06:43:42;;;;;;;19.02;12.35;;;16.60;90.00;;;;;;4936833;29;20259;-88
2023/09/28 06:46:08;;;;;;;13.45;12.15;;;16.60;89.90;;;;;;4938790;29;20180;-87
2023/09/28 06:48:34;;;;;;;14.55;12.38;;;16.70;89.60;;;;;;4937607;29;20180;-88
2023/09/28 06:50:59;;;;;;;14.50;12.23;;;16.70;89.30;;;;;;4938176;29;20226;-87
2023/09/28 06:53:26;;;;;;;14.07;12.48;;;16.70;89.00;;;;;;4936809;29;20183;-87
2023/09/28 06:55:52;;;;;;;12.57;11.48;;;16.80;89.00;;;;;;4938194;29;20172;-88
2023/09/28 06:58:19;;;;;;;13.85;12.48;;;16.80;89.20;;;;;;4937909;29;20247;-88
2023/09/28 07:00:45;;;;;;;14.25;12.68;;;16.80;89.00;;;;;;4937090;29;20625;-87
2023/09/28 07:03:14;;;;;;;13.63;12.30;;;16.80;89.00;;;;;;4937235;29;20176;-88
2023/09/28 07:05:40;;;;;;;15.15;12.05;;;16.80;89.20;;;;;;4938377;29;20339;-87
2023/09/28 07:08:06;;;;;;;16.65;11.65;;;16.80;89.30;;;;;;4937871;29;20184;-88
2023/09/28 07:10:33;;;;;;;12.95;11.60;;;16.80;89.30;;;;;;4937247;29;20210;-88
2023/09/28 07:13:05;;;;;;;13.50;11.27;;;16.80;89.00;;;;;;4937247;29;20660;-87
2023/09/28 07:15:31;;;;;;;17.45;11.85;;;16.80;88.90;;;;;;4937201;29;20196;-87
2023/09/28 07:17:57;;;;;;;15.45;11.77;;;16.80;88.90;;;;;;4937734;29;20176;-88
2023/09/28 07:20:23;;;;;;;14.00;12.27;;;16.80;88.80;;;;;;4937661;29;20177;-87
2023/09/28 07:22:49;;;;;;;17.70;11.82;;;16.90;88.40;;;;;;4938687;29;20176;-87
2023/09/28 07:25:15;;;;;;;14.80;11.90;;;16.90;88.30;;;;;;4938751;29;20207;-88
2023/09/28 07:27:42;;;;;;;13.32;12.02;;;16.90;88.20;;;;;;4935147;29;20195;-88
2023/09/28 07:30:08;;;;;;;18.83;12.30;;;16.90;88.30;;;;;;4935711;29;20259;-88
2023/09/28 07:32:34;;;;;;;13.30;11.90;;;17.00;88.40;;;;;;4935864;29;20255;-87
2023/09/28 07:35:00;;;;;;;12.85;11.63;;;17.20;88.30;;;;;;4935541;29;20207;-86
2023/09/28 07:37:27;;;;;;;15.57;11.60;;;17.20;87.80;;;;;;4936439;29;20252;-86
2023/09/28 07:39:53;;;;;;;14.13;12.52;;;17.30;87.80;;;;;;4935063;29;20203;-89
2023/09/28 07:42:19;;;;;;;17.25;11.75;;;17.50;88.00;;;;;;4936199;29;20207;-88
2023/09/28 07:44:45;;;;;;;13.48;11.25;;;17.60;87.70;;;;;;4936472;29;20683;-87
2023/09/28 07:47:11;;;;;;;15.48;11.05;;;17.70;87.90;;;;;;4934871;29;20188;-87
2023/09/28 07:49:36;;;;;;;13.65;12.07;;;17.70;87.60;;;;;;4936400;29;20168;-87
2023/09/28 07:52:02;;;;;;;12.65;11.23;;;17.80;87.20;;;;;;4934712;29;20208;-89
2023/09/28 07:54:28;;;;;;;13.98;12.10;;;17.90;87.20;;;;;;4936250;29;20248;-87
2023/09/28 07:56:55;;;;;;;16.48;12.02;;;17.90;87.00;;;;;;4934931;29;20214;-87
2023/09/28 07:59:20;;;;;;;13.63;12.07;;;18.10;87.00;;;;;;4935964;29;20260;-85
2023/09/28 08:01:47;;;;;;;15.23;13.00;;;18.10;86.10;;;;;;4936327;29;20624;-90
2023/09/28 08:04:13;;;;;;;13.00;11.68;;;18.20;86.10;;;;;;4939407;29;20196;-89
2023/09/28 08:06:40;;;;;;;12.38;11.38;;;18.30;85.90;;;;;;4940158;29;20188;-89
2023/09/28 08:09:05;;;;;;;16.95;13.05;;;18.40;86.30;;;;;;4939489;29;20184;-87
2023/09/28 08:11:32;;;;;;;13.75;12.18;;;18.50;85.80;;;;;;4939318;29;20267;-87
2023/09/28 08:13:57;;;;;;;14.63;12.32;;;18.70;85.90;;;;;;4938631;29;20200;-89
2023/09/28 08:16:23;;;;;;;13.18;12.05;;;18.70;86.10;;;;;;4937562;29;20596;-87
2023/09/28 08:18:49;;;;;;;14.65;13.15;;;18.80;85.70;;;;;;4938644;29;20164;-87
2023/09/28 08:21:15;;;;;;;14.20;12.65;;;18.80;85.20;;;;;;4938672;29;20175;-89
2023/09/28 08:23:40;;;;;;;16.45;14.55;;;18.80;85.40;;;;;;4938580;29;20699;-88
2023/09/28 08:26:06;;;;;;;14.63;13.10;;;19.00;84.70;;;;;;4938013;29;20195;-87
2023/09/28 08:28:32;;;;;;;15.73;13.45;;;19.20;84.30;;;;;;4938365;29;20176;-88
2023/09/28 08:31:03;;;;;;;14.52;13.00;;;19.30;84.00;;;;;;4938311;29;20207;-87
2023/09/28 08:33:29;;;;;;;14.57;13.05;;;19.30;84.20;;;;;;4938462;29;20644;-89
2023/09/28 08:35:55;;;;;;;13.55;12.38;;;19.40;83.70;;;;;;4938213;29;20168;-88
2023/09/28 08:38:20;;;;;;;14.27;12.95;;;19.50;83.70;;;;;;4938369;29;20183;-89
2023/09/28 08:40:49;;;;;;;14.75;12.75;;;19.50;83.80;;;;;;4938139;29;20195;-88
2023/09/28 08:43:19;;;;;;;18.02;13.75;;;19.60;83.00;;;;;;4938059;29;20258;-88
2023/09/28 08:45:47;;;;;;;14.98;13.60;;;19.60;83.20;;;;;;4937608;29;20743;-89
2023/09/28 08:48:17;;;;;;;15.60;14.10;;;19.70;83.10;;;;;;4938115;29;20180;-88
2023/09/28 08:50:44;;;;;;;16.38;13.88;;;19.70;82.70;;;;;;4938609;29;20196;-89
2023/09/28 08:53:10;;;;;;;15.32;13.98;;;19.80;82.30;;;;;;4936854;29;20172;-89
2023/09/28 08:55:39;;;;;;;16.30;12.95;;;19.90;81.90;;;;;;4936731;29;20199;-90
2023/09/28 08:58:08;;;;;;;16.15;14.45;;;19.90;81.90;;;;;;4938043;29;20555;-88
2023/09/28 09:00:36;;;;;;;14.77;13.18;;;20.00;82.30;;;;;;4936580;29;20185;-88
2023/09/28 09:03:06;;;;;;;14.80;13.35;;;20.20;82.70;;;;;;4938064;29;20172;-87
2023/09/28 09:05:31;;;;;;;14.82;13.43;;;20.10;81.50;;;;;;4937656;29;20196;-88
2023/09/28 09:07:59;;;;;;;14.20;12.80;;;20.10;81.30;;;;;;4936648;29;20180;-87
2023/09/28 09:10:27;;;;;;;14.32;12.93;;;20.20;81.10;;;;;;4936647;29;20210;-90
2023/09/28 09:12:52;;;;;;;14.23;12.93;;;20.20;80.40;;;;;;4935900;29;20184;-88
2023/09/28 09:15:18;;;;;;;14.77;13.40;;;20.20;80.50;;;;;;4937596;29;20239;-87
2023/09/28 09:17:44;;;;;;;15.23;13.32;;;20.20;80.10;;;;;;4937980;29;20255;-88
2023/09/28 09:20:10;;;;;;;15.15;13.75;;;20.30;79.30;;;;;;4936381;29;20172;-88
2023/09/28 09:22:36;;;;;;;15.90;13.77;;;20.30;79.40;;;;;;4936253;29;20652;-88
2023/09/28 09:25:02;;;;;;;16.50;14.90;;;20.40;79.60;;;;;;4936123;29;20200;-87
2023/09/28 09:27:29;;;;;;;16.65;13.20;;;20.50;78.50;;;;;;4937286;29;20553;-88
2023/09/28 09:30:14;;;;;;;15.80;14.18;;;20.50;78.60;;;;;;4936046;29;20183;-88
2023/09/28 09:32:42;;;;;;;16.27;14.57;;;20.50;78.50;;;;;;4937497;29;20161;-87
2023/09/28 09:35:09;;;;;;;15.63;14.07;;;20.40;78.30;;;;;;4935883;29;20287;-87
2023/09/28 09:37:41;;;;;;;15.40;13.88;;;20.50;79.00;;;;;;4935704;29;20184;-87
2023/09/28 09:40:14;;;;;;;17.77;13.75;;;20.60;79.20;;;;;;4936946;29;20199;-88
2023/09/28 09:42:41;;;;;;;15.63;14.20;;;20.70;78.50;;;;;;4936961;29;20164;-88
2023/09/28 09:45:08;;;;;;;17.15;12.90;;;20.70;77.40;;;;;;4936791;29;20266;-86
2023/09/28 09:47:34;;;;;;;16.15;13.45;;;20.70;77.70;;;;;;4936878;29;20172;-86
2023/09/28 09:50:01;;;;;;;17.77;14.02;;;20.70;77.60;;;;;;4936977;29;20176;-87
2023/09/28 09:52:28;;;;;;;16.67;13.88;;;20.80;77.90;;;;;;4935422;29;20196;-87
2023/09/28 09:54:54;;;;;;;15.00;13.75;;;20.90;76.70;;;;;;4935558;29;20282;-87
2023/09/28 09:57:23;;;;;;;15.70;14.20;;;21.00;76.80;;;;;;4935676;29;20180;-86
2023/09/28 09:59:52;;;;;;;14.68;13.15;;;21.00;76.00;;;;;;4936657;29;20180;-88
2023/09/28 10:02:25;;;;;;;16.98;14.25;;;21.00;76.40;;;;;;4936594;29;20235;-87
2023/09/28 10:04:54;;;;;;;16.05;14.07;;;21.00;76.60;;;;;;4935233;29;20195;-87
2023/09/28 10:07:32;;;;;;;19.05;13.70;;;21.20;76.00;;;;;;4935641;29;20306;-87
2023/09/28 10:09:58;;;;;;;16.50;13.85;;;21.10;75.10;;;;;;4936852;29;20691;-87
2023/09/28 10:12:25;;;;;;;16.17;14.48;;;21.10;74.60;;;;;;4935290;29;20295;-87
2023/09/28 10:14:52;;;;;;;15.95;14.25;;;21.10;74.60;;;;;;4936473;29;20196;-88
2023/09/28 10:17:18;;;;;;;17.10;14.32;;;21.10;75.20;;;;;;4935120;29;20188;-88
2023/09/28 10:19:46;;;;;;;13.95;12.50;;;21.30;75.00;;;;;;4935071;29;20176;-87
2023/09/28 10:22:12;;;;;;;18.77;13.70;;;21.30;75.80;;;;;;4935093;29;20180;-87
2023/09/28 10:24:38;;;;;;;15.32;12.82;;;21.30;76.20;;;;;;4934763;29;20204;-88
2023/09/28 10:27:10;;;;;;;16.23;14.32;;;21.40;74.50;;;;;;4936626;29;20180;-87
2023/09/28 10:29:37;;;;;;;15.32;13.25;;;21.40;74.70;;;;;;4936428;29;20699;-87
2023/09/28 10:32:25;;;;;;;17.38;13.93;;;21.50;74.70;;;;;;4935109;29;20211;-88
2023/09/28 10:35:19;;;;;;;16.25;14.18;;;21.70;75.60;;;;;;4936460;29;20219;-87
2023/09/28 10:38:17;;;;;;;15.57;13.98;;;21.70;75.80;;;;;;4936227;29;20157;-88
2023/09/28 10:41:05;;;;;;;17.70;14.40;;;21.80;75.00;;;;;;4936237;29;20731;-88
2023/09/28 10:43:35;;;;;;;16.80;15.10;;;21.80;75.40;;;;;;4935144;29;20176;-88
2023/09/28 10:46:05;;;;;;;19.17;15.05;;;21.80;74.70;;;;;;4935005;29;20186;-87
2023/09/28 10:48:46;;;;;;;17.73;15.07;;;22.00;75.20;;;;;;4936607;29;20203;-87
2023/09/28 10:51:19;;;;;;;16.42;14.80;;;21.90;73.50;;;;;;4936032;29;20286;-87
2023/09/28 10:53:45;;;;;;;18.77;15.65;;;21.80;73.80;;;;;;4936091;29;20275;-87
2023/09/28 10:56:17;;;;;;;24.48;15.75;;;21.70;73.30;;;;;;4935419;29;20607;-88
2023/09/28 10:58:42;;;;;;;16.42;14.80;;;21.90;73.90;;;;;;4936240;29;20652;-87
2023/09/28 11:01:08;;;;;;;14.63;13.07;;;22.00;73.30;;;;;;4936068;29;20192;-88
2023/09/28 11:03:35;;;;;;;16.85;13.57;;;22.10;74.20;;;;;;4936236;29;20187;-88
2023/09/28 11:06:04;;;;;;;14.82;13.38;;;21.90;74.00;;;;;;4934675;29;20192;-87
2023/09/28 11:08:31;;;;;;;17.83;15.45;;;22.10;73.50;;;;;;4935991;29;20176;-88
2023/09/28 11:11:01;;;;;;;22.05;16.73;;;22.20;72.50;;;;;;4935992;29;20335;-88
2023/09/28 11:13:27;;;;;;;16.98;15.25;;;22.20;71.80;;;;;;4934642;29;20172;-86
2023/09/28 11:15:56;;;;;;;16.20;14.43;;;22.00;72.50;;;;;;4936268;29;20580;-87
2023/09/28 11:18:24;;;;;;;17.08;15.38;;;22.00;73.60;;;;;;4935497;29;20184;-87
2023/09/28 11:20:50;;;;;;;16.40;14.68;;;21.70;72.10;;;;;;4936093;29;20183;-87
2023/09/28 11:23:16;;;;;;;21.30;15.43;;;21.70;73.10;;;;;;4935746;29;20255;-88
2023/09/28 11:25:42;;;;;;;16.50;13.98;;;21.80;73.10;;;;;;4934586;29;20256;-86
2023/09/28 11:28:09;;;;;;;18.05;14.60;;;21.90;72.90;;;;;;4934484;29;20271;-87
2023/09/28 11:30:34;;;;;;;23.20;15.90;;;22.00;73.50;;;;;;4935655;29;20200;-87
2023/09/28 11:33:03;;;;;;;16.10;14.50;;;21.80;72.20;;;;;;4936106;29;20187;-87
2023/09/28 11:35:33;;;;;;;16.25;14.25;;;21.70;72.90;;;;;;4935629;29;20214;-87
2023/09/28 11:38:06;;;;;;;17.55;14.32;;;21.70;73.30;;;;;;4939214;29;20255;-87
2023/09/28 11:40:32;;;;;;;21.70;14.25;;;21.60;73.00;;;;;;4939159;29;20567;-86
2023/09/28 11:42:59;;;;;;;18.58;14.85;;;21.60;73.50;;;;;;4939267;29;20179;-88
2023/09/28 11:45:36;;;;;;;16.10;14.07;;;21.50;73.40;;;;;;4937858;29;20204;-86
2023/09/28 11:48:10;;;;;;;20.48;14.30;;;21.50;73.50;;;;;;4939199;29;20171;-87
2023/09/28 11:50:37;;;;;;;16.08;14.43;;;21.70;74.20;;;;;;4937795;29;20290;-87
2023/09/28 11:53:08;;;;;;;16.70;15.02;;;21.70;73.00;;;;;;4937881;29;20183;-87
2023/09/28 11:55:35;;;;;;;18.00;13.95;;;21.40;73.90;;;;;;4937647;29;20629;-87
2023/09/28 11:58:02;;;;;;;18.08;14.90;;;21.60;75.00;;;;;;4937785;29;20176;-87
2023/09/28 12:00:28;;;;;;;20.08;14.10;;;21.80;73.90;;;;;;4938901;29;20227;-87
2023/09/28 12:02:54;;;;;;;24.35;14.50;;;21.80;73.80;;;;;;4938980;29;20172;-87
2023/09/28 12:05:21;;;;;;;23.90;14.75;;;21.90;74.40;;;;;;4938906;29;20706;-87
2023/09/28 12:07:47;;;;;;;17.25;15.45;;;21.80;74.20;;;;;;4939001;29;20207;-87
2023/09/28 12:10:14;;;;;;;18.42;13.88;;;21.60;73.40;;;;;;4938699;29;20605;-89
2023/09/28 12:12:40;;;;;;;18.58;15.20;;;21.50;74.90;;;;;;4938501;29;20671;-88
2023/09/28 12:15:10;;;;;;;22.17;14.88;;;21.40;74.70;;;;;;4938738;29;20196;-87
2023/09/28 12:17:39;;;;;;;15.80;14.15;;;21.40;74.80;;;;;;4937887;29;20168;-88
2023/09/28 12:20:06;;;;;;;17.80;14.05;;;21.50;73.50;;;;;;4939199;29;20671;-87
2023/09/28 12:22:33;;;;;;;18.60;14.82;;;21.70;73.60;;;;;;4937327;29;20567;-87
2023/09/28 12:24:59;;;;;;;16.70;14.88;;;21.80;74.10;;;;;;4937459;29;20342;-88
2023/09/28 12:27:24;;;;;;;19.17;14.70;;;21.90;72.80;;;;;;4937278;29;20631;-87
2023/09/28 12:29:50;;;;;;;22.95;15.48;;;22.10;72.70;;;;;;4937244;29;20535;-87